createdAt,value
2022-10-01T00:02:07.003Z,98765.03
2022-10-01T00:04:37.452Z,98782.31
2022-10-01T00:07:09.472Z,98786.69
2022-10-01T00:09:36.460Z,98801.75
2022-10-01T00:12:03.927Z,98763.88
2022-10-01T00:14:30.978Z,98770.56
2022-10-01T00:16:57.963Z,98782.44
2022-10-01T00:19:25.100Z,98777.31
2022-10-01T00:21:52.023Z,98763.09
2022-10-01T00:24:19.128Z,98753.59
2022-10-01T00:26:46.633Z,98774.50
2022-10-01T00:29:15.375Z,98795.47
2022-10-01T00:31:43.197Z,98776.91
2022-10-01T00:34:15.153Z,98735.13
2022-10-01T00:36:42.363Z,98773.34
2022-10-01T00:39:12.236Z,98798.22
2022-10-01T00:41:39.190Z,98792.69
2022-10-01T00:44:34.878Z,98775.72
2022-10-01T00:47:34.596Z,98784.75
2022-10-01T00:50:10.009Z,98798.53
2022-10-01T00:52:40.903Z,98793.44
2022-10-01T00:55:18.196Z,98789.06
2022-10-01T00:57:45.679Z,98785.91
2022-10-01T01:00:14.790Z,98795.78
2022-10-01T01:02:42.385Z,98787.97
2022-10-01T01:05:12.125Z,98776.16
2022-10-01T01:07:42.260Z,98777.72
2022-10-01T01:10:09.676Z,98778.50
2022-10-01T01:13:12.779Z,98770.56
2022-10-01T01:15:49.795Z,98795.06
2022-10-01T01:18:26.801Z,98806.91
2022-10-01T01:21:17.438Z,98816.41
2022-10-01T01:24:25.374Z,98756.41
2022-10-01T01:27:31.504Z,98798.63
2022-10-01T01:30:13.520Z,98792.72
2022-10-01T01:33:06.120Z,98756.47
2022-10-01T01:35:54.836Z,98752.50
2022-10-01T01:38:28.810Z,98807.03
2022-10-01T01:41:02.221Z,98754.56
2022-10-01T01:43:38.025Z,98733.63
2022-10-01T01:46:08.042Z,98755.31
2022-10-01T01:48:37.153Z,98751.78
2022-10-01T01:51:32.081Z,98741.94
2022-10-01T01:53:59.779Z,98728.91
2022-10-01T01:56:26.996Z,98759.31
2022-10-01T01:58:54.319Z,98747.88
2022-10-01T02:01:44.572Z,98712.75
2022-10-01T02:04:33.729Z,98753.81
2022-10-01T02:07:34.776Z,98728.16
2022-10-01T02:10:32.551Z,98727.38
2022-10-01T02:13:24.299Z,98743.94
2022-10-01T02:16:01.360Z,98733.69
2022-10-01T02:18:46.500Z,98719.94
2022-10-01T02:21:46.540Z,98761.34
2022-10-01T02:24:26.467Z,98718.75
2022-10-01T02:26:55.696Z,98734.50
2022-10-01T02:29:23.950Z,98708.50
2022-10-01T02:31:55.628Z,98732.97
2022-10-01T02:34:28.935Z,98717.97
2022-10-01T02:36:59.481Z,98674.63
2022-10-01T02:39:30.851Z,98685.25
2022-10-01T02:41:59.621Z,98722.72
2022-10-01T02:44:38.780Z,98688.03
2022-10-01T02:47:37.727Z,98688.38
2022-10-01T02:50:07.216Z,98710.09
2022-10-01T02:52:46.096Z,98686.84
2022-10-01T02:55:19.511Z,98712.88
2022-10-01T02:57:47.033Z,98703.78
2022-10-01T03:00:21.321Z,98725.06
2022-10-01T03:02:49.875Z,98702.59
2022-10-01T03:05:18.107Z,98710.91
2022-10-01T03:07:45.512Z,98701.84
2022-10-01T03:10:16.070Z,98721.94
2022-10-01T03:12:46.549Z,98697.50
2022-10-01T03:15:16.884Z,98714.84
2022-10-01T03:17:43.925Z,98732.19
2022-10-01T03:20:12.504Z,98712.47
2022-10-01T03:22:39.623Z,98741.66
2022-10-01T03:25:07.042Z,98715.63
2022-10-01T03:27:33.967Z,98703.81
2022-10-01T03:30:01.185Z,98711.69
2022-10-01T03:32:28.242Z,98733.75
2022-10-01T03:34:55.363Z,98725.09
2022-10-01T03:37:22.286Z,98698.28
2022-10-01T03:39:49.523Z,98738.09
2022-10-01T03:42:16.920Z,98706.94
2022-10-01T03:44:44.366Z,98721.16
2022-10-01T03:47:11.667Z,98721.16
2022-10-01T03:49:38.673Z,98766.09
2022-10-01T03:52:06.764Z,98762.13
2022-10-01T03:54:33.956Z,98758.22
2022-10-01T03:57:00.931Z,98738.09
2022-10-01T03:59:28.012Z,98719.56
2022-10-01T04:01:55.079Z,98748.34
2022-10-01T04:04:22.385Z,98755.88
2022-10-01T04:06:49.381Z,98754.28
2022-10-01T04:09:16.478Z,98727.84
2022-10-01T04:11:43.688Z,98720.38
2022-10-01T04:14:10.649Z,98699.50
2022-10-01T04:16:37.767Z,98716.03
2022-10-01T04:19:05.374Z,98716.44
2022-10-01T04:21:32.692Z,98723.53
2022-10-01T04:24:00.428Z,98723.53
2022-10-01T04:26:27.501Z,98708.56
2022-10-01T04:28:54.441Z,98719.59
2022-10-01T04:31:24.558Z,98697.50
2022-10-01T04:33:57.523Z,98721.16
2022-10-01T04:36:25.722Z,98700.66
2022-10-01T04:39:01.693Z,98715.25
2022-10-01T04:41:31.311Z,98734.56
2022-10-01T04:44:00.251Z,98751.16
2022-10-01T04:46:30.905Z,98726.66
2022-10-01T04:48:58.217Z,98748.78
2022-10-01T04:51:25.442Z,98728.25
2022-10-01T04:53:52.430Z,98771.66
2022-10-01T04:56:19.357Z,98727.06
2022-10-01T04:58:46.708Z,98766.13
2022-10-01T05:01:21.128Z,98728.28
2022-10-01T05:03:48.153Z,98751.94
2022-10-01T05:06:15.091Z,98697.53
2022-10-01T05:08:42.341Z,98721.94
2022-10-01T05:11:09.268Z,98710.91
2022-10-01T05:13:36.387Z,98756.66
2022-10-01T05:16:03.995Z,98716.03
2022-10-01T05:18:31.183Z,98723.50
2022-10-01T05:20:58.336Z,98746.81
2022-10-01T05:23:25.405Z,98720.41
2022-10-01T05:25:52.646Z,98713.69
2022-10-01T05:28:22.497Z,98701.84
2022-10-01T05:30:53.759Z,98713.25
2022-10-01T05:33:20.876Z,98703.03
2022-10-01T05:35:47.891Z,98680.94
2022-10-01T05:38:14.988Z,98697.09
2022-10-01T05:40:46.221Z,98718.78
2022-10-01T05:43:13.531Z,98718.78
2022-10-01T05:45:41.404Z,98688.84
2022-10-01T05:48:09.617Z,98706.97
2022-10-01T05:50:40.304Z,98684.09
2022-10-01T05:53:09.991Z,98667.50
2022-10-01T05:55:37.492Z,98662.81
2022-10-01T05:58:08.215Z,98662.78
2022-10-01T06:00:35.876Z,98660.44
2022-10-01T06:03:04.455Z,98632.88
2022-10-01T06:05:34.398Z,98610.78
2022-10-01T06:08:04.888Z,98635.97
2022-10-01T06:10:32.068Z,98664.38
2022-10-01T06:13:02.046Z,98683.69
2022-10-01T06:15:30.105Z,98665.19
2022-10-01T06:17:57.245Z,98657.28
2022-10-01T06:20:24.245Z,98660.44
2022-10-01T06:22:56.843Z,98705.38
2022-10-01T06:25:26.267Z,98681.72
2022-10-01T06:27:56.281Z,98661.25
2022-10-01T06:30:27.283Z,98654.53
2022-10-01T06:33:16.527Z,98673.44
2022-10-01T06:35:48.078Z,98676.22
2022-10-01T06:38:17.390Z,98658.09
2022-10-01T06:40:44.656Z,98662.41
2022-10-01T06:43:11.643Z,98677.00
2022-10-01T06:45:42.654Z,98637.22
2022-10-01T06:48:14.641Z,98650.59
2022-10-01T06:50:44.608Z,98654.16
2022-10-01T06:53:14.161Z,98667.53
2022-10-01T06:55:41.591Z,98670.31
2022-10-01T06:58:16.538Z,98717.22
2022-10-01T07:00:44.420Z,98704.59
2022-10-01T07:03:18.447Z,98704.59
2022-10-01T07:05:46.471Z,98698.31
2022-10-01T07:08:13.682Z,98623.03
2022-10-01T07:10:43.072Z,98665.19
2022-10-01T07:13:16.901Z,98697.88
2022-10-01T07:15:45.398Z,98691.97
2022-10-01T07:18:12.852Z,98702.63
2022-10-01T07:20:40.694Z,98721.97
2022-10-01T07:23:13.776Z,98664.78
2022-10-01T07:25:42.511Z,98688.03
2022-10-01T07:28:18.544Z,98698.31
2022-10-01T07:30:59.997Z,98677.00
2022-10-01T07:33:27.465Z,98724.34
2022-10-01T07:35:54.666Z,98664.41
2022-10-01T07:38:22.116Z,98645.47
2022-10-01T07:40:54.902Z,98672.28
2022-10-01T07:43:22.674Z,98703.03
2022-10-01T07:45:50.286Z,98674.28
2022-10-01T07:48:17.336Z,98664.41
2022-10-01T07:50:45.359Z,98698.28
2022-10-01T07:53:13.009Z,98671.09
2022-10-01T07:55:40.082Z,98692.00
2022-10-01T07:58:09.532Z,98686.47
2022-10-01T08:00:36.745Z,98750.38
2022-10-01T08:03:05.352Z,98709.34
2022-10-01T08:05:39.929Z,98721.16
2022-10-01T08:08:09.387Z,98712.88
2022-10-01T08:10:38.901Z,98703.06
2022-10-01T08:13:14.681Z,98716.03
2022-10-01T08:15:55.079Z,98690.81
2022-10-01T08:18:22.721Z,98738.09
2022-10-01T08:20:50.085Z,98691.19
2022-10-01T08:23:17.692Z,98714.84
2022-10-01T08:25:45.697Z,98717.59
2022-10-01T08:28:20.779Z,98702.19
2022-10-01T08:30:47.911Z,98698.66
2022-10-01T08:33:16.942Z,98696.66
2022-10-01T08:35:44.728Z,98691.91
2022-10-01T08:38:12.916Z,98688.75
2022-10-01T08:40:50.012Z,98697.44
2022-10-01T08:43:32.337Z,98740.00
2022-10-01T08:46:24.254Z,98697.41
2022-10-01T08:49:18.311Z,98724.97
2022-10-01T08:51:48.968Z,98724.19
2022-10-01T08:55:08.042Z,98754.97
2022-10-01T08:57:47.152Z,98762.41
2022-10-01T09:00:17.029Z,98738.31
2022-10-01T09:02:46.799Z,98755.69
2022-10-01T09:05:25.426Z,98740.69
2022-10-01T09:08:15.392Z,98753.25
2022-10-01T09:11:01.383Z,98710.72
2022-10-01T09:14:00.132Z,98743.06
2022-10-01T09:16:51.516Z,98765.19
2022-10-01T09:19:39.528Z,98748.56
2022-10-01T09:23:02.985Z,98760.34
2022-10-01T09:25:31.656Z,98781.69
2022-10-01T09:28:24.832Z,98730.44
2022-10-01T09:31:15.526Z,98728.09
2022-10-01T09:34:11.771Z,98791.56
2022-10-01T09:37:14.857Z,98786.44
2022-10-01T09:39:49.212Z,98776.97
2022-10-01T09:42:17.565Z,98799.84
2022-10-01T09:44:46.872Z,98749.38
2022-10-01T09:47:21.095Z,98781.31
2022-10-01T09:49:49.854Z,98769.88
2022-10-01T09:52:39.281Z,98738.31
2022-10-01T09:55:45.769Z,98749.00
2022-10-01T09:58:18.673Z,98799.06
2022-10-01T10:00:48.268Z,98795.13
2022-10-01T10:03:28.785Z,98760.81
2022-10-01T10:05:57.800Z,98795.13
2022-10-01T10:08:38.237Z,98754.88
2022-10-01T10:11:10.872Z,98806.19
2022-10-01T10:13:42.382Z,98810.88
2022-10-01T10:16:22.090Z,98806.56
2022-10-01T10:18:54.038Z,98772.25
2022-10-01T10:21:30.119Z,98833.03
2022-10-01T10:24:04.942Z,98769.94
2022-10-01T10:26:39.371Z,98754.97
2022-10-01T10:32:25.382Z,98800.72
2022-10-01T10:34:58.873Z,98789.56
2022-10-01T10:37:36.119Z,98809.72
2022-10-01T10:40:08.008Z,98835.41
2022-10-01T10:42:38.774Z,98828.28
2022-10-01T10:45:18.824Z,98799.88
2022-10-01T10:47:49.666Z,98803.81
2022-10-01T10:50:29.906Z,98845.56
2022-10-01T10:52:57.976Z,98795.06
2022-10-01T10:55:31.813Z,98861.34
2022-10-01T10:58:14.998Z,98847.94
2022-10-01T11:00:50.512Z,98818.38
2022-10-01T11:03:22.716Z,98816.44
2022-10-01T11:05:51.999Z,98881.06
2022-10-01T11:08:25.205Z,98862.97
2022-10-01T11:11:39.243Z,98807.31
2022-10-01T11:14:59.162Z,98828.31
2022-10-01T11:17:31.188Z,98802.59
2022-10-01T11:20:36.721Z,98793.56
2022-10-01T11:23:51.756Z,98828.22
2022-10-01T11:26:32.686Z,98806.84
2022-10-01T11:29:17.776Z,98786.44
2022-10-01T11:32:19.622Z,98825.84
2022-10-01T11:35:08.140Z,98841.56
2022-10-01T11:37:53.063Z,98819.94
2022-10-01T11:40:35.978Z,98788.00
2022-10-01T11:43:28.228Z,98814.78
2022-10-01T11:46:06.887Z,98818.00
2022-10-01T11:48:57.232Z,98800.56
2022-10-01T11:51:37.178Z,98844.34
2022-10-01T11:54:12.972Z,98824.22
2022-10-01T11:57:09.126Z,98833.72
2022-10-01T12:00:05.683Z,98838.03
2022-10-01T12:02:59.120Z,98822.28
2022-10-01T12:05:31.998Z,98806.06
2022-10-01T12:08:22.216Z,98826.63
2022-10-01T12:11:11.765Z,98806.06
2022-10-01T12:13:46.868Z,98802.16
2022-10-01T12:16:50.818Z,98831.34
2022-10-01T12:19:32.371Z,98825.78
2022-10-01T12:22:21.271Z,98833.66
2022-10-01T12:24:51.227Z,98820.69
2022-10-01T12:27:48.217Z,98839.19
2022-10-01T12:30:20.058Z,98840.69
2022-10-01T12:33:35.811Z,98816.25
2022-10-01T12:36:25.468Z,98821.38
2022-10-01T12:39:13.869Z,98810.69
2022-10-01T12:42:31.279Z,98813.47
2022-10-01T12:45:24.155Z,98803.53
2022-10-01T12:48:32.085Z,98805.16
2022-10-01T12:51:23.597Z,98790.22
2022-10-01T12:54:05.694Z,98812.31
2022-10-01T12:56:42.874Z,98837.53
2022-10-01T12:59:24.507Z,98830.00
2022-10-01T13:02:08.111Z,98794.91
2022-10-01T13:05:06.662Z,98825.25
2022-10-01T13:07:52.818Z,98825.56
2022-10-01T13:10:39.367Z,98811.34
2022-10-01T13:13:22.434Z,98794.13
2022-10-01T13:16:04.872Z,98834.25
2022-10-01T13:18:52.910Z,98801.19
2022-10-01T13:21:57.926Z,98850.19
2022-10-01T13:25:08.000Z,98851.66
2022-10-01T13:27:42.489Z,98869.06
2022-10-01T13:30:24.790Z,98843.03
2022-10-01T13:33:01.113Z,98847.03
2022-10-01T13:35:36.518Z,98886.41
2022-10-01T13:38:29.362Z,98862.81
2022-10-01T13:41:03.731Z,98886.44
2022-10-01T13:43:34.182Z,98873.69
2022-10-01T13:46:09.143Z,98858.44
2022-10-01T13:48:45.419Z,98857.19
2022-10-01T13:51:15.210Z,98840.69
2022-10-01T13:53:42.106Z,98881.72
2022-10-01T13:56:14.456Z,98903.03
2022-10-01T13:58:44.328Z,98868.34
2022-10-01T14:01:23.693Z,98869.03
2022-10-01T14:03:58.964Z,98880.13
2022-10-01T14:06:37.463Z,98873.47
2022-10-01T14:09:31.594Z,98894.34
2022-10-01T14:12:52.876Z,98910.09
2022-10-01T14:15:44.426Z,98884.44
2022-10-01T14:18:19.135Z,98890.75
2022-10-01T14:21:33.933Z,98891.63
2022-10-01T14:24:43.578Z,98895.13
2022-10-01T14:27:25.739Z,98908.47
2022-10-01T14:30:36.584Z,98922.31
2022-10-01T14:33:23.428Z,98925.84
2022-10-01T14:36:32.588Z,98918.81
2022-10-01T14:39:23.069Z,98948.00
2022-10-01T14:41:53.699Z,98944.00
2022-10-01T14:44:43.753Z,98946.28
2022-10-01T14:47:36.142Z,98936.13
2022-10-01T14:50:17.637Z,98927.06
2022-10-01T14:52:51.159Z,98981.00
2022-10-01T14:55:23.204Z,98935.97
2022-10-01T14:57:54.932Z,98941.53
2022-10-01T15:00:30.555Z,98962.78
2022-10-01T15:03:15.940Z,98942.28
2022-10-01T15:05:46.288Z,98928.81
2022-10-01T15:08:36.568Z,98916.28
2022-10-01T15:11:13.167Z,98963.63
2022-10-01T15:13:44.635Z,98931.56
2022-10-01T15:16:21.875Z,98925.00
2022-10-01T15:18:57.032Z,98925.38
2022-10-01T15:21:40.089Z,98909.94
2022-10-01T15:24:31.385Z,98909.16
2022-10-01T15:26:58.873Z,98916.00
2022-10-01T15:29:25.923Z,98924.28
2022-10-01T15:31:56.174Z,98928.59
2022-10-01T15:34:25.918Z,98916.28
2022-10-01T15:36:54.272Z,98947.81
2022-10-01T15:39:40.725Z,98939.72
2022-10-01T15:42:28.591Z,98924.09
2022-10-01T15:45:22.760Z,98971.78
2022-10-01T15:47:52.072Z,98971.34
2022-10-01T15:50:29.103Z,98965.91
2022-10-01T15:53:06.632Z,98975.44
2022-10-01T15:55:53.168Z,98963.19
2022-10-01T15:58:31.719Z,98989.63
2022-10-01T16:01:22.522Z,98973.13
2022-10-01T16:04:14.945Z,99006.97
2022-10-01T16:06:46.584Z,98988.13
2022-10-01T16:09:18.942Z,99007.47
2022-10-01T16:12:04.039Z,98984.22
2022-10-01T16:14:56.313Z,99020.53
2022-10-01T16:17:38.268Z,98985.38
2022-10-01T16:20:14.378Z,98978.78
2022-10-01T16:22:43.159Z,98985.81
2022-10-01T16:25:25.040Z,98996.88
2022-10-01T16:28:04.091Z,98972.31
2022-10-01T16:30:34.000Z,98974.75
2022-10-01T16:33:04.531Z,98998.81
2022-10-01T16:35:35.699Z,98994.09
2022-10-01T16:38:08.447Z,99014.16
2022-10-01T16:40:42.181Z,99004.75
2022-10-01T16:43:18.527Z,99024.53
2022-10-01T16:45:45.962Z,99012.66
2022-10-01T16:48:19.807Z,99007.09
2022-10-01T16:50:47.163Z,99040.25
2022-10-01T16:53:18.301Z,99010.63
2022-10-01T16:55:46.630Z,99010.28
2022-10-01T16:58:14.084Z,99011.06
2022-10-01T17:00:41.603Z,99045.84
2022-10-01T17:03:21.282Z,99014.28
2022-10-01T17:05:48.582Z,99041.16
2022-10-01T17:08:16.334Z,99052.13
2022-10-01T17:10:57.015Z,99063.66
2022-10-01T17:13:29.395Z,99058.50
2022-10-01T17:15:57.147Z,99051.09
2022-10-01T17:18:24.292Z,99065.34
2022-10-01T17:20:51.410Z,99055.13
2022-10-01T17:23:22.177Z,99060.66
2022-10-01T17:25:49.713Z,99098.09
2022-10-01T17:28:20.083Z,99077.22
2022-10-01T17:30:49.275Z,99071.28
2022-10-01T17:33:19.296Z,99098.19
2022-10-01T17:35:54.674Z,99106.91
2022-10-01T17:38:22.806Z,99104.91
2022-10-01T17:40:56.195Z,99086.41
2022-10-01T17:43:23.840Z,99099.88
2022-10-01T17:46:00.989Z,99126.72
2022-10-01T17:48:29.078Z,99146.88
2022-10-01T17:51:08.127Z,99133.88
2022-10-01T17:53:42.283Z,99144.91
2022-10-01T17:56:19.500Z,99129.94
2022-10-01T17:58:46.814Z,99125.59
2022-10-01T18:01:19.668Z,99154.03
2022-10-01T18:03:47.013Z,99150.09
2022-10-01T18:06:16.110Z,99143.81
2022-10-01T18:08:58.698Z,99139.50
2022-10-01T18:11:28.206Z,99152.50
2022-10-01T18:13:55.291Z,99142.66
2022-10-01T18:16:23.763Z,99163.59
2022-10-01T18:21:47.461Z,99185.28
2022-10-01T18:24:16.273Z,99179.75
2022-10-01T18:26:44.641Z,99181.38
2022-10-01T18:29:23.382Z,99201.84
2022-10-01T18:32:24.253Z,99195.94
2022-10-01T18:35:00.793Z,99208.19
2022-10-01T18:37:52.789Z,99178.13
2022-10-01T18:40:27.203Z,99179.00
2022-10-01T18:43:17.497Z,99182.53
2022-10-01T18:46:38.964Z,99180.59
2022-10-01T18:49:28.485Z,99183.78
2022-10-01T18:52:46.821Z,99185.75
2022-10-01T18:56:07.256Z,99217.78
2022-10-01T18:58:54.694Z,99206.34
2022-10-01T19:01:30.079Z,99221.72
2022-10-01T19:04:27.960Z,99231.63
2022-10-01T19:07:33.621Z,99215.03
2022-10-01T19:10:26.123Z,99232.81
2022-10-01T19:13:23.285Z,99215.41
2022-10-01T19:16:27.242Z,99241.88
2022-10-01T19:19:20.351Z,99232.09
2022-10-01T19:22:22.029Z,99237.56
2022-10-01T19:25:17.463Z,99246.28
2022-10-01T19:28:06.425Z,99228.13
2022-10-01T19:31:28.668Z,99244.75
2022-10-01T19:34:30.361Z,99258.97
2022-10-01T19:37:09.596Z,99281.09
2022-10-01T19:39:41.412Z,99266.09
2022-10-01T19:42:29.582Z,99262.16
2022-10-01T19:45:24.182Z,99286.69
2022-10-01T19:48:11.758Z,99295.34
2022-10-01T19:50:44.394Z,99292.91
2022-10-01T19:53:31.845Z,99297.69
2022-10-01T19:56:01.860Z,99315.13
2022-10-01T19:58:30.588Z,99312.34
2022-10-01T20:01:01.620Z,99323.38
2022-10-01T20:03:34.222Z,99310.41
2022-10-01T20:06:09.142Z,99323.06
2022-10-01T20:08:49.309Z,99333.41
2022-10-01T20:11:36.340Z,99322.28
2022-10-01T20:14:55.860Z,99342.09
2022-10-01T20:17:42.853Z,99327.84
2022-10-01T20:20:32.309Z,99361.84
2022-10-01T20:23:31.128Z,99367.38
2022-10-01T20:26:38.804Z,99380.88
2022-10-01T20:29:32.232Z,99385.94
2022-10-01T20:32:37.102Z,99384.00
2022-10-01T20:35:34.870Z,99380.47
2022-10-01T20:38:36.597Z,99376.91
2022-10-01T20:41:14.992Z,99377.25
2022-10-01T20:43:55.520Z,99372.94
2022-10-01T20:46:38.851Z,99374.50
2022-10-01T20:49:24.840Z,99382.84
2022-10-01T20:52:31.163Z,99374.50
2022-10-01T20:55:10.199Z,99392.69
2022-10-01T20:57:45.266Z,99372.91
2022-10-01T21:00:23.351Z,99367.38
2022-10-01T21:03:19.616Z,99368.19
2022-10-01T21:06:04.801Z,99371.31
2022-10-01T21:08:41.692Z,99380.03
2022-10-01T21:11:25.574Z,99365.06
2022-10-01T21:14:06.463Z,99385.69
2022-10-01T21:17:08.748Z,99392.00
2022-10-01T21:20:04.086Z,99384.50
2022-10-01T21:23:01.831Z,99399.13
2022-10-01T21:26:09.812Z,99392.41
2022-10-01T21:28:39.706Z,99402.72
2022-10-01T21:31:37.038Z,99388.84
2022-10-01T21:34:33.341Z,99407.47
2022-10-01T21:37:33.031Z,99404.72
2022-10-01T21:40:48.357Z,99405.91
2022-10-01T21:43:36.042Z,99415.81
2022-10-01T21:46:21.241Z,99417.00
2022-10-01T21:49:29.204Z,99399.97
2022-10-01T21:52:21.493Z,99417.38
2022-10-01T21:54:51.056Z,99407.91
2022-10-01T21:57:35.903Z,99418.19
2022-10-01T22:00:21.698Z,99415.41
2022-10-01T22:03:19.689Z,99437.56
2022-10-01T22:05:52.346Z,99408.69
2022-10-01T22:08:41.383Z,99431.66
2022-10-01T22:11:18.496Z,99430.47
2022-10-01T22:14:02.158Z,99441.13
2022-10-01T22:16:39.916Z,99417.78
2022-10-01T22:19:13.919Z,99426.09
2022-10-01T22:21:54.201Z,99427.28
2022-10-01T22:24:33.171Z,99430.44
2022-10-01T22:27:20.158Z,99430.47
2022-10-01T22:30:06.646Z,99434.03
2022-10-01T22:32:42.541Z,99443.53
2022-10-01T22:35:23.692Z,99446.72
2022-10-01T22:38:05.242Z,99457.00
2022-10-01T22:40:42.408Z,99464.94
2022-10-01T22:43:12.141Z,99451.84
2022-10-01T22:46:18.077Z,99451.84
2022-10-01T22:49:22.364Z,99469.69
2022-10-01T22:52:25.970Z,99466.91
2022-10-01T22:55:21.775Z,99449.06
2022-10-01T22:58:09.620Z,99478.81
2022-10-01T23:01:08.249Z,99471.25
2022-10-01T23:04:04.303Z,99457.00
2022-10-01T23:06:41.679Z,99476.81
2022-10-01T23:09:33.927Z,99483.16
2022-10-01T23:12:40.191Z,99453.03
2022-10-01T23:15:36.979Z,99489.47
2022-10-01T23:18:25.403Z,99475.22
2022-10-01T23:21:32.785Z,99487.09
2022-10-01T23:24:20.867Z,99475.22
2022-10-01T23:27:30.535Z,99483.91
2022-10-01T23:30:11.704Z,99498.19
2022-10-01T23:33:34.710Z,99501.34
2022-10-01T23:36:26.494Z,99486.31
2022-10-01T23:39:34.853Z,99486.31
2022-10-01T23:42:28.876Z,99502.16
2022-10-01T23:45:12.053Z,99494.22
2022-10-01T23:47:57.472Z,99510.09
2022-10-01T23:50:37.952Z,99487.50
2022-10-01T23:53:51.141Z,99493.84
2022-10-01T23:56:57.625Z,99494.25
2022-10-01T23:59:52.438Z,99502.56
